sensor_id;sensor_type;location;lat;lon;timestamp;temperature;humidity
30308;DHT22;17114;52.314;8.910;2023-11-21T00:00:03;7.00;99.90
30308;DHT22;17114;52.314;8.910;2023-11-21T00:02:36;7.00;99.90
30308;DHT22;17114;52.314;8.910;2023-11-21T00:05:07;7.00;99.90
30308;DHT22;17114;52.314;8.910;2023-11-21T00:07:34;7.00;99.90
30308;DHT22;17114;52.314;8.910;2023-11-21T00:10:02;7.10;99.90
30308;DHT22;17114;52.314;8.910;2023-11-21T00:12:29;7.00;99.90
30308;DHT22;17114;52.314;8.910;2023-11-21T00:14:56;7.00;99.90
30308;DHT22;17114;52.314;8.910;2023-11-21T00:17:24;7.10;99.90
30308;DHT22;17114;52.314;8.910;2023-11-21T00:19:52;7.00;99.90
30308;DHT22;17114;52.314;8.910;2023-11-21T00:22:19;6.90;99.90
30308;DHT22;17114;52.314;8.910;2023-11-21T00:24:47;7.00;99.90
30308;DHT22;17114;52.314;8.910;2023-11-21T00:27:14;7.00;99.90
30308;DHT22;17114;52.314;8.910;2023-11-21T00:29:41;7.10;99.90
30308;DHT22;17114;52.314;8.910;2023-11-21T00:32:08;7.00;99.90
30308;DHT22;17114;52.314;8.910;2023-11-21T00:34:35;7.00;99.90
30308;DHT22;17114;52.314;8.910;2023-11-21T00:37:02;7.00;99.90
30308;DHT22;17114;52.314;8.910;2023-11-21T00:39:29;7.00;99.90
30308;DHT22;17114;52.314;8.910;2023-11-21T00:41:56;7.00;99.90
30308;DHT22;17114;52.314;8.910;2023-11-21T00:44:23;7.00;99.90
30308;DHT22;17114;52.314;8.910;2023-11-21T00:46:50;7.10;99.90
30308;DHT22;17114;52.314;8.910;2023-11-21T00:49:17;7.10;99.90
30308;DHT22;17114;52.314;8.910;2023-11-21T00:51:44;7.20;99.90
30308;DHT22;17114;52.314;8.910;2023-11-21T00:54:11;7.10;99.90
30308;DHT22;17114;52.314;8.910;2023-11-21T00:56:37;7.10;99.90
30308;DHT22;17114;52.314;8.910;2023-11-21T00:59:04;7.10;99.90
30308;DHT22;17114;52.314;8.910;2023-11-21T01:01:31;7.00;99.90
30308;DHT22;17114;52.314;8.910;2023-11-21T01:03:58;7.00;99.90
30308;DHT22;17114;52.314;8.910;2023-11-21T01:06:25;6.90;99.90
30308;DHT22;17114;52.314;8.910;2023-11-21T01:08:52;7.00;99.90
30308;DHT22;17114;52.314;8.910;2023-11-21T01:11:19;6.80;99.90
30308;DHT22;17114;52.314;8.910;2023-11-21T01:13:46;6.80;99.90
30308;DHT22;17114;52.314;8.910;2023-11-21T01:16:13;6.80;99.90
30308;DHT22;17114;52.314;8.910;2023-11-21T01:18:40;6.80;99.90
30308;DHT22;17114;52.314;8.910;2023-11-21T01:21:07;6.80;99.90
30308;DHT22;17114;52.314;8.910;2023-11-21T01:23:35;6.80;99.90
30308;DHT22;17114;52.314;8.910;2023-11-21T01:26:02;7.00;99.90
30308;DHT22;17114;52.314;8.910;2023-11-21T01:28:29;6.90;99.90
30308;DHT22;17114;52.314;8.910;2023-11-21T01:30:56;6.90;99.90
30308;DHT22;17114;52.314;8.910;2023-11-21T01:33:26;7.10;99.90
30308;DHT22;17114;52.314;8.910;2023-11-21T01:35:52;6.90;99.90
30308;DHT22;17114;52.314;8.910;2023-11-21T01:38:22;6.90;99.90
30308;DHT22;17114;52.314;8.910;2023-11-21T01:40:49;6.90;99.90
30308;DHT22;17114;52.314;8.910;2023-11-21T01:43:16;6.90;99.90
30308;DHT22;17114;52.314;8.910;2023-11-21T01:45:43;6.80;99.90
30308;DHT22;17114;52.314;8.910;2023-11-21T01:48:13;6.90;99.90
30308;DHT22;17114;52.314;8.910;2023-11-21T01:50:40;6.90;99.90
30308;DHT22;17114;52.314;8.910;2023-11-21T01:53:07;6.90;99.90
30308;DHT22;17114;52.314;8.910;2023-11-21T01:55:35;6.90;99.90
30308;DHT22;17114;52.314;8.910;2023-11-21T01:58:02;7.00;99.90
30308;DHT22;17114;52.314;8.910;2023-11-21T02:00:29;7.20;99.90
30308;DHT22;17114;52.314;8.910;2023-11-21T02:02:56;6.90;99.90
30308;DHT22;17114;52.314;8.910;2023-11-21T02:05:23;7.10;99.90
30308;DHT22;17114;52.314;8.910;2023-11-21T02:07:50;7.10;99.90
30308;DHT22;17114;52.314;8.910;2023-11-21T02:10:19;7.10;99.90
30308;DHT22;17114;52.314;8.910;2023-11-21T02:12:50;7.10;99.90
30308;DHT22;17114;52.314;8.910;2023-11-21T02:15:17;7.20;99.90
30308;DHT22;17114;52.314;8.910;2023-11-21T02:17:48;7.10;99.90
30308;DHT22;17114;52.314;8.910;2023-11-21T02:20:21;7.20;99.90
30308;DHT22;17114;52.314;8.910;2023-11-21T02:22:50;7.20;99.90
30308;DHT22;17114;52.314;8.910;2023-11-21T02:25:25;7.20;99.90
30308;DHT22;17114;52.314;8.910;2023-11-21T02:27:55;7.10;99.90
30308;DHT22;17114;52.314;8.910;2023-11-21T02:30:22;7.20;99.90
30308;DHT22;17114;52.314;8.910;2023-11-21T02:32:51;7.30;99.90
30308;DHT22;17114;52.314;8.910;2023-11-21T02:35:24;7.30;99.90
30308;DHT22;17114;52.314;8.910;2023-11-21T02:37:53;7.30;99.90
30308;DHT22;17114;52.314;8.910;2023-11-21T02:40:21;7.30;99.90
30308;DHT22;17114;52.314;8.910;2023-11-21T02:42:48;7.40;99.90
30308;DHT22;17114;52.314;8.910;2023-11-21T02:45:15;7.50;99.90
30308;DHT22;17114;52.314;8.910;2023-11-21T02:47:45;7.40;99.90
30308;DHT22;17114;52.314;8.910;2023-11-21T02:50:12;7.40;99.90
30308;DHT22;17114;52.314;8.910;2023-11-21T02:52:39;7.60;99.90
30308;DHT22;17114;52.314;8.910;2023-11-21T02:55:09;7.50;99.90
30308;DHT22;17114;52.314;8.910;2023-11-21T02:57:36;7.50;99.90
30308;DHT22;17114;52.314;8.910;2023-11-21T03:00:03;7.50;99.90
30308;DHT22;17114;52.314;8.910;2023-11-21T03:02:34;7.50;99.90
30308;DHT22;17114;52.314;8.910;2023-11-21T03:05:07;7.40;99.90
30308;DHT22;17114;52.314;8.910;2023-11-21T03:07:37;7.50;99.90
30308;DHT22;17114;52.314;8.910;2023-11-21T03:10:05;7.40;99.90
30308;DHT22;17114;52.314;8.910;2023-11-21T03:12:32;7.50;99.90
30308;DHT22;17114;52.314;8.910;2023-11-21T03:14:59;7.50;99.90
30308;DHT22;17114;52.314;8.910;2023-11-21T03:17:26;7.50;99.90
30308;DHT22;17114;52.314;8.910;2023-11-21T03:19:53;7.50;99.90
30308;DHT22;17114;52.314;8.910;2023-11-21T03:22:21;7.50;99.90
30308;DHT22;17114;52.314;8.910;2023-11-21T03:24:48;7.50;99.90
30308;DHT22;17114;52.314;8.910;2023-11-21T03:27:14;7.50;99.90
30308;DHT22;17114;52.314;8.910;2023-11-21T03:29:41;7.50;99.90
30308;DHT22;17114;52.314;8.910;2023-11-21T03:32:08;7.60;99.90
30308;DHT22;17114;52.314;8.910;2023-11-21T03:34:35;7.70;99.90
30308;DHT22;17114;52.314;8.910;2023-11-21T03:37:02;7.60;99.90
30308;DHT22;17114;52.314;8.910;2023-11-21T03:39:28;7.60;99.90
30308;DHT22;17114;52.314;8.910;2023-11-21T03:41:56;7.60;99.90
30308;DHT22;17114;52.314;8.910;2023-11-21T03:44:23;7.80;99.90
30308;DHT22;17114;52.314;8.910;2023-11-21T03:46:49;7.70;99.90
30308;DHT22;17114;52.314;8.910;2023-11-21T03:49:16;7.80;99.90
30308;DHT22;17114;52.314;8.910;2023-11-21T03:51:43;7.70;99.90
30308;DHT22;17114;52.314;8.910;2023-11-21T03:54:10;7.70;99.90
30308;DHT22;17114;52.314;8.910;2023-11-21T03:56:37;7.70;99.90
30308;DHT22;17114;52.314;8.910;2023-11-21T03:59:04;7.70;99.90
30308;DHT22;17114;52.314;8.910;2023-11-21T04:01:31;7.70;99.90
30308;DHT22;17114;52.314;8.910;2023-11-21T04:03:58;7.70;99.90
30308;DHT22;17114;52.314;8.910;2023-11-21T04:06:26;7.70;99.90
30308;DHT22;17114;52.314;8.910;2023-11-21T04:08:52;7.70;99.90
30308;DHT22;17114;52.314;8.910;2023-11-21T04:11:19;7.70;99.90
30308;DHT22;17114;52.314;8.910;2023-11-21T04:13:46;7.70;99.90
30308;DHT22;17114;52.314;8.910;2023-11-21T04:16:13;7.60;99.90
30308;DHT22;17114;52.314;8.910;2023-11-21T04:18:40;7.80;99.90
30308;DHT22;17114;52.314;8.910;2023-11-21T04:21:08;7.80;99.90
30308;DHT22;17114;52.314;8.910;2023-11-21T04:23:35;7.70;99.90
30308;DHT22;17114;52.314;8.910;2023-11-21T04:26:02;7.70;99.90
30308;DHT22;17114;52.314;8.910;2023-11-21T04:28:29;7.60;99.90
30308;DHT22;17114;52.314;8.910;2023-11-21T04:30:57;7.70;99.90
30308;DHT22;17114;52.314;8.910;2023-11-21T04:33:24;7.80;99.90
30308;DHT22;17114;52.314;8.910;2023-11-21T04:35:52;7.70;99.90
30308;DHT22;17114;52.314;8.910;2023-11-21T04:38:18;7.80;99.90
30308;DHT22;17114;52.314;8.910;2023-11-21T04:40:45;7.70;99.90
30308;DHT22;17114;52.314;8.910;2023-11-21T04:43:12;7.80;99.90
30308;DHT22;17114;52.314;8.910;2023-11-21T04:45:39;7.70;99.90
30308;DHT22;17114;52.314;8.910;2023-11-21T04:48:08;7.80;99.90
30308;DHT22;17114;52.314;8.910;2023-11-21T04:50:35;7.70;99.90
30308;DHT22;17114;52.314;8.910;2023-11-21T04:53:02;7.70;99.90
30308;DHT22;17114;52.314;8.910;2023-11-21T04:55:29;7.80;99.90
30308;DHT22;17114;52.314;8.910;2023-11-21T04:57:56;7.60;99.90
30308;DHT22;17114;52.314;8.910;2023-11-21T05:00:23;7.70;99.90
30308;DHT22;17114;52.314;8.910;2023-11-21T05:02:50;7.70;99.90
30308;DHT22;17114;52.314;8.910;2023-11-21T05:05:18;7.70;99.90
30308;DHT22;17114;52.314;8.910;2023-11-21T05:07:44;7.70;99.90
30308;DHT22;17114;52.314;8.910;2023-11-21T05:10:11;7.80;99.90
30308;DHT22;17114;52.314;8.910;2023-11-21T05:12:41;7.70;99.90
30308;DHT22;17114;52.314;8.910;2023-11-21T05:15:09;7.70;99.90
30308;DHT22;17114;52.314;8.910;2023-11-21T05:17:39;7.70;99.90
30308;DHT22;17114;52.314;8.910;2023-11-21T05:20:11;7.80;99.90
30308;DHT22;17114;52.314;8.910;2023-11-21T05:22:40;7.70;99.90
30308;DHT22;17114;52.314;8.910;2023-11-21T05:25:09;7.70;99.90
30308;DHT22;17114;52.314;8.910;2023-11-21T05:27:36;7.80;99.90
30308;DHT22;17114;52.314;8.910;2023-11-21T05:30:03;7.70;99.90
30308;DHT22;17114;52.314;8.910;2023-11-21T05:32:35;7.70;99.90
30308;DHT22;17114;52.314;8.910;2023-11-21T05:35:02;7.80;99.90
30308;DHT22;17114;52.314;8.910;2023-11-21T05:37:29;7.80;99.90
30308;DHT22;17114;52.314;8.910;2023-11-21T05:39:56;7.70;99.90
30308;DHT22;17114;52.314;8.910;2023-11-21T05:42:23;7.80;99.90
30308;DHT22;17114;52.314;8.910;2023-11-21T05:44:50;7.70;99.90
30308;DHT22;17114;52.314;8.910;2023-11-21T05:47:17;7.70;99.90
30308;DHT22;17114;52.314;8.910;2023-11-21T05:49:45;7.80;99.90
30308;DHT22;17114;52.314;8.910;2023-11-21T05:52:17;7.80;99.90
30308;DHT22;17114;52.314;8.910;2023-11-21T05:54:44;7.80;99.90
30308;DHT22;17114;52.314;8.910;2023-11-21T05:57:11;7.70;99.90
30308;DHT22;17114;52.314;8.910;2023-11-21T05:59:38;7.80;99.90
30308;DHT22;17114;52.314;8.910;2023-11-21T06:02:05;7.80;99.90
30308;DHT22;17114;52.314;8.910;2023-11-21T06:04:32;7.80;99.90
30308;DHT22;17114;52.314;8.910;2023-11-21T06:06:59;7.80;99.90
30308;DHT22;17114;52.314;8.910;2023-11-21T06:09:27;7.80;99.90
30308;DHT22;17114;52.314;8.910;2023-11-21T06:11:54;7.80;99.90
30308;DHT22;17114;52.314;8.910;2023-11-21T06:14:21;7.80;99.90
30308;DHT22;17114;52.314;8.910;2023-11-21T06:16:48;7.90;99.90
30308;DHT22;17114;52.314;8.910;2023-11-21T06:19:17;7.90;99.90
30308;DHT22;17114;52.314;8.910;2023-11-21T06:21:48;7.90;99.90
30308;DHT22;17114;52.314;8.910;2023-11-21T06:24:14;7.80;99.90
30308;DHT22;17114;52.314;8.910;2023-11-21T06:26:42;7.80;99.90
30308;DHT22;17114;52.314;8.910;2023-11-21T06:29:09;7.80;99.90
30308;DHT22;17114;52.314;8.910;2023-11-21T06:31:35;7.80;99.90
30308;DHT22;17114;52.314;8.910;2023-11-21T06:34:02;8.00;99.90
30308;DHT22;17114;52.314;8.910;2023-11-21T06:36:30;7.90;99.90
30308;DHT22;17114;52.314;8.910;2023-11-21T06:38:57;7.80;99.90
30308;DHT22;17114;52.314;8.910;2023-11-21T06:41:24;7.80;99.90
30308;DHT22;17114;52.314;8.910;2023-11-21T06:43:50;7.90;99.90
30308;DHT22;17114;52.314;8.910;2023-11-21T06:46:17;7.80;99.90
30308;DHT22;17114;52.314;8.910;2023-11-21T06:48:46;7.90;99.90
30308;DHT22;17114;52.314;8.910;2023-11-21T06:51:13;7.80;99.90
30308;DHT22;17114;52.314;8.910;2023-11-21T06:53:40;7.80;99.90
30308;DHT22;17114;52.314;8.910;2023-11-21T06:56:19;7.80;99.90
30308;DHT22;17114;52.314;8.910;2023-11-21T06:58:46;7.90;99.90
30308;DHT22;17114;52.314;8.910;2023-11-21T07:01:13;7.80;99.90
30308;DHT22;17114;52.314;8.910;2023-11-21T07:03:41;7.90;99.90
30308;DHT22;17114;52.314;8.910;2023-11-21T07:06:08;7.90;99.90
30308;DHT22;17114;52.314;8.910;2023-11-21T07:08:35;7.90;99.90
30308;DHT22;17114;52.314;8.910;2023-11-21T07:11:03;7.80;99.90
30308;DHT22;17114;52.314;8.910;2023-11-21T07:13:30;7.80;99.90
30308;DHT22;17114;52.314;8.910;2023-11-21T07:15:58;7.80;99.90
30308;DHT22;17114;52.314;8.910;2023-11-21T07:18:25;7.80;99.90
30308;DHT22;17114;52.314;8.910;2023-11-21T07:20:52;7.90;99.90
30308;DHT22;17114;52.314;8.910;2023-11-21T07:23:20;7.90;99.90
30308;DHT22;17114;52.314;8.910;2023-11-21T07:25:49;7.70;99.90
30308;DHT22;17114;52.314;8.910;2023-11-21T07:28:16;7.90;99.90
30308;DHT22;17114;52.314;8.910;2023-11-21T07:30:42;7.80;99.90
30308;DHT22;17114;52.314;8.910;2023-11-21T07:33:10;7.80;99.90
30308;DHT22;17114;52.314;8.910;2023-11-21T07:35:36;7.80;99.90
30308;DHT22;17114;52.314;8.910;2023-11-21T07:38:03;7.80;99.90
30308;DHT22;17114;52.314;8.910;2023-11-21T07:40:30;7.90;99.90
30308;DHT22;17114;52.314;8.910;2023-11-21T07:42:57;8.00;99.90
30308;DHT22;17114;52.314;8.910;2023-11-21T07:45:25;8.00;99.90
30308;DHT22;17114;52.314;8.910;2023-11-21T07:47:54;8.00;99.90
30308;DHT22;17114;52.314;8.910;2023-11-21T07:50:22;8.00;99.90
30308;DHT22;17114;52.314;8.910;2023-11-21T07:52:49;8.00;99.90
30308;DHT22;17114;52.314;8.910;2023-11-21T07:55:16;7.90;99.90
30308;DHT22;17114;52.314;8.910;2023-11-21T07:57:43;7.80;99.90
30308;DHT22;17114;52.314;8.910;2023-11-21T08:00:10;8.00;99.90
30308;DHT22;17114;52.314;8.910;2023-11-21T08:02:39;8.00;99.90
30308;DHT22;17114;52.314;8.910;2023-11-21T08:05:09;8.00;99.90
30308;DHT22;17114;52.314;8.910;2023-11-21T08:07:50;7.90;99.90
30308;DHT22;17114;52.314;8.910;2023-11-21T08:10:17;7.90;99.90
30308;DHT22;17114;52.314;8.910;2023-11-21T08:12:44;7.90;99.90
30308;DHT22;17114;52.314;8.910;2023-11-21T08:15:11;7.80;99.90
30308;DHT22;17114;52.314;8.910;2023-11-21T08:17:38;7.80;99.90
30308;DHT22;17114;52.314;8.910;2023-11-21T08:20:06;7.80;99.90
30308;DHT22;17114;52.314;8.910;2023-11-21T08:22:35;7.70;99.90
30308;DHT22;17114;52.314;8.910;2023-11-21T08:25:02;7.80;99.90
30308;DHT22;17114;52.314;8.910;2023-11-21T08:27:31;7.70;99.90
30308;DHT22;17114;52.314;8.910;2023-11-21T08:29:58;7.70;99.90
30308;DHT22;17114;52.314;8.910;2023-11-21T08:32:25;7.70;99.90
30308;DHT22;17114;52.314;8.910;2023-11-21T08:34:52;7.70;99.90
30308;DHT22;17114;52.314;8.910;2023-11-21T08:37:19;7.70;99.90
30308;DHT22;17114;52.314;8.910;2023-11-21T08:39:47;7.60;99.90
30308;DHT22;17114;52.314;8.910;2023-11-21T08:42:15;7.60;99.90
30308;DHT22;17114;52.314;8.910;2023-11-21T08:44:42;7.70;99.90
30308;DHT22;17114;52.314;8.910;2023-11-21T08:47:08;7.60;99.90
30308;DHT22;17114;52.314;8.910;2023-11-21T08:49:35;7.60;99.90
30308;DHT22;17114;52.314;8.910;2023-11-21T08:52:03;7.50;99.90
30308;DHT22;17114;52.314;8.910;2023-11-21T08:54:30;7.40;99.90
30308;DHT22;17114;52.314;8.910;2023-11-21T08:56:57;7.40;99.90
30308;DHT22;17114;52.314;8.910;2023-11-21T08:59:25;7.40;99.90
30308;DHT22;17114;52.314;8.910;2023-11-21T09:01:53;7.50;99.90
30308;DHT22;17114;52.314;8.910;2023-11-21T09:04:20;7.40;99.90
30308;DHT22;17114;52.314;8.910;2023-11-21T09:06:47;7.40;99.90
30308;DHT22;17114;52.314;8.910;2023-11-21T09:09:13;7.40;99.90
30308;DHT22;17114;52.314;8.910;2023-11-21T09:11:41;7.30;99.90
30308;DHT22;17114;52.314;8.910;2023-11-21T09:14:07;7.30;99.90
30308;DHT22;17114;52.314;8.910;2023-11-21T09:16:35;7.30;99.90
30308;DHT22;17114;52.314;8.910;2023-11-21T09:19:02;7.30;99.90
30308;DHT22;17114;52.314;8.910;2023-11-21T09:21:32;7.30;99.90
30308;DHT22;17114;52.314;8.910;2023-11-21T09:23:59;7.30;99.90
30308;DHT22;17114;52.314;8.910;2023-11-21T09:26:26;7.30;99.90
30308;DHT22;17114;52.314;8.910;2023-11-21T09:28:53;7.40;99.90
30308;DHT22;17114;52.314;8.910;2023-11-21T09:31:20;7.40;99.90
30308;DHT22;17114;52.314;8.910;2023-11-21T09:33:49;7.40;99.90
30308;DHT22;17114;52.314;8.910;2023-11-21T09:36:16;7.40;99.90
30308;DHT22;17114;52.314;8.910;2023-11-21T09:38:43;7.40;99.90
30308;DHT22;17114;52.314;8.910;2023-11-21T09:41:22;7.40;99.90
30308;DHT22;17114;52.314;8.910;2023-11-21T09:43:52;7.40;99.90
30308;DHT22;17114;52.314;8.910;2023-11-21T09:46:21;7.50;99.90
30308;DHT22;17114;52.314;8.910;2023-11-21T09:48:51;7.50;99.90
30308;DHT22;17114;52.314;8.910;2023-11-21T09:51:23;7.50;99.90
30308;DHT22;17114;52.314;8.910;2023-11-21T09:53:54;7.50;99.90
30308;DHT22;17114;52.314;8.910;2023-11-21T09:56:21;7.60;99.90
30308;DHT22;17114;52.314;8.910;2023-11-21T09:58:52;7.60;99.90
30308;DHT22;17114;52.314;8.910;2023-11-21T10:01:21;7.50;99.90
30308;DHT22;17114;52.314;8.910;2023-11-21T10:03:49;7.50;99.90
30308;DHT22;17114;52.314;8.910;2023-11-21T10:06:18;7.50;99.90
30308;DHT22;17114;52.314;8.910;2023-11-21T10:08:46;7.50;99.90
30308;DHT22;17114;52.314;8.910;2023-11-21T10:11:25;7.50;99.90
30308;DHT22;17114;52.314;8.910;2023-11-21T10:13:54;7.40;99.90
30308;DHT22;17114;52.314;8.910;2023-11-21T10:16:26;7.40;99.90
30308;DHT22;17114;52.314;8.910;2023-11-21T10:18:53;7.40;99.90
30308;DHT22;17114;52.314;8.910;2023-11-21T10:21:39;7.30;99.90
30308;DHT22;17114;52.314;8.910;2023-11-21T10:24:07;7.40;99.90
30308;DHT22;17114;52.314;8.910;2023-11-21T10:26:34;7.30;99.90
30308;DHT22;17114;52.314;8.910;2023-11-21T10:29:16;7.20;99.90
30308;DHT22;17114;52.314;8.910;2023-11-21T10:31:43;7.20;99.90
30308;DHT22;17114;52.314;8.910;2023-11-21T10:34:16;7.20;99.90
30308;DHT22;17114;52.314;8.910;2023-11-21T10:36:44;7.20;99.90
30308;DHT22;17114;52.314;8.910;2023-11-21T10:39:17;7.30;99.90
30308;DHT22;17114;52.314;8.910;2023-11-21T10:41:45;7.20;99.90
30308;DHT22;17114;52.314;8.910;2023-11-21T10:44:19;7.30;99.90
30308;DHT22;17114;52.314;8.910;2023-11-21T10:46:52;7.20;99.90
30308;DHT22;17114;52.314;8.910;2023-11-21T10:49:25;7.10;99.90
30308;DHT22;17114;52.314;8.910;2023-11-21T10:51:56;7.10;99.90
30308;DHT22;17114;52.314;8.910;2023-11-21T10:54:24;7.00;99.90
30308;DHT22;17114;52.314;8.910;2023-11-21T10:56:59;7.00;99.90
30308;DHT22;17114;52.314;8.910;2023-11-21T10:59:30;7.00;99.90
30308;DHT22;17114;52.314;8.910;2023-11-21T11:01:58;7.10;99.90
30308;DHT22;17114;52.314;8.910;2023-11-21T11:04:30;7.00;99.90
30308;DHT22;17114;52.314;8.910;2023-11-21T11:06:58;7.20;99.90
30308;DHT22;17114;52.314;8.910;2023-11-21T11:09:31;7.20;99.90
30308;DHT22;17114;52.314;8.910;2023-11-21T11:12:02;7.30;99.90
30308;DHT22;17114;52.314;8.910;2023-11-21T11:14:31;7.30;99.90
30308;DHT22;17114;52.314;8.910;2023-11-21T11:16:59;7.30;99.90
30308;DHT22;17114;52.314;8.910;2023-11-21T11:19:28;7.40;99.90
30308;DHT22;17114;52.314;8.910;2023-11-21T11:22:06;7.30;99.90
30308;DHT22;17114;52.314;8.910;2023-11-21T11:24:57;7.40;99.90
30308;DHT22;17114;52.314;8.910;2023-11-21T11:35:38;7.40;99.90
30308;DHT22;17114;52.314;8.910;2023-11-21T11:38:09;7.50;99.90
30308;DHT22;17114;52.314;8.910;2023-11-21T11:40:41;7.50;99.90
30308;DHT22;17114;52.314;8.910;2023-11-21T11:43:09;7.50;99.90
30308;DHT22;17114;52.314;8.910;2023-11-21T11:45:36;7.60;99.90
30308;DHT22;17114;52.314;8.910;2023-11-21T11:48:08;7.50;99.90
30308;DHT22;17114;52.314;8.910;2023-11-21T11:51:04;7.50;99.90
30308;DHT22;17114;52.314;8.910;2023-11-21T11:53:40;7.40;99.90
30308;DHT22;17114;52.314;8.910;2023-11-21T11:56:33;7.40;99.90
30308;DHT22;17114;52.314;8.910;2023-11-21T11:59:03;7.50;99.90
30308;DHT22;17114;52.314;8.910;2023-11-21T12:01:33;7.40;99.90
30308;DHT22;17114;52.314;8.910;2023-11-21T12:06:53;7.60;99.90
30308;DHT22;17114;52.314;8.910;2023-11-21T12:09:22;7.60;99.90
30308;DHT22;17114;52.314;8.910;2023-11-21T12:11:50;7.70;99.90
30308;DHT22;17114;52.314;8.910;2023-11-21T12:14:17;7.60;99.90
30308;DHT22;17114;52.314;8.910;2023-11-21T12:16:45;7.60;99.90
30308;DHT22;17114;52.314;8.910;2023-11-21T12:19:12;7.60;99.90
30308;DHT22;17114;52.314;8.910;2023-11-21T12:21:40;7.70;99.90
30308;DHT22;17114;52.314;8.910;2023-11-21T12:24:10;7.70;99.90
30308;DHT22;17114;52.314;8.910;2023-11-21T12:26:41;7.70;99.90
30308;DHT22;17114;52.314;8.910;2023-11-21T12:29:08;7.80;99.90
30308;DHT22;17114;52.314;8.910;2023-11-21T12:31:35;7.80;99.90
30308;DHT22;17114;52.314;8.910;2023-11-21T12:34:03;7.90;99.90
30308;DHT22;17114;52.314;8.910;2023-11-21T12:36:31;7.70;99.90
30308;DHT22;17114;52.314;8.910;2023-11-21T12:38:58;7.80;99.90
30308;DHT22;17114;52.314;8.910;2023-11-21T12:41:25;7.80;99.90
30308;DHT22;17114;52.314;8.910;2023-11-21T12:43:52;7.70;99.90
30308;DHT22;17114;52.314;8.910;2023-11-21T12:46:19;7.70;99.90
30308;DHT22;17114;52.314;8.910;2023-11-21T12:48:47;7.70;99.90
30308;DHT22;17114;52.314;8.910;2023-11-21T12:51:14;7.80;99.90
30308;DHT22;17114;52.314;8.910;2023-11-21T12:53:42;7.90;99.90
30308;DHT22;17114;52.314;8.910;2023-11-21T12:56:11;7.80;99.90
30308;DHT22;17114;52.314;8.910;2023-11-21T12:58:38;7.80;99.90
30308;DHT22;17114;52.314;8.910;2023-11-21T13:01:06;7.60;99.90
30308;DHT22;17114;52.314;8.910;2023-11-21T13:03:38;7.70;99.90
30308;DHT22;17114;52.314;8.910;2023-11-21T13:06:07;7.60;99.90
30308;DHT22;17114;52.314;8.910;2023-11-21T13:08:34;7.60;99.90
30308;DHT22;17114;52.314;8.910;2023-11-21T13:11:01;7.50;99.90
30308;DHT22;17114;52.314;8.910;2023-11-21T13:13:29;7.60;99.90
30308;DHT22;17114;52.314;8.910;2023-11-21T13:16:01;7.60;99.90
30308;DHT22;17114;52.314;8.910;2023-11-21T13:18:31;7.60;99.90
30308;DHT22;17114;52.314;8.910;2023-11-21T13:21:02;7.70;99.90
30308;DHT22;17114;52.314;8.910;2023-11-21T13:23:36;7.60;99.90
30308;DHT22;17114;52.314;8.910;2023-11-21T13:26:05;7.70;99.90
30308;DHT22;17114;52.314;8.910;2023-11-21T13:28:33;7.60;99.90
30308;DHT22;17114;52.314;8.910;2023-11-21T13:31:02;7.60;99.90
30308;DHT22;17114;52.314;8.910;2023-11-21T13:33:37;7.60;99.90
30308;DHT22;17114;52.314;8.910;2023-11-21T13:36:05;7.60;99.90
30308;DHT22;17114;52.314;8.910;2023-11-21T13:38:37;7.50;99.90
30308;DHT22;17114;52.314;8.910;2023-11-21T13:41:08;7.60;99.90
30308;DHT22;17114;52.314;8.910;2023-11-21T13:43:37;7.50;99.90
30308;DHT22;17114;52.314;8.910;2023-11-21T13:46:04;7.50;99.90
30308;DHT22;17114;52.314;8.910;2023-11-21T13:48:40;7.50;99.90
30308;DHT22;17114;52.314;8.910;2023-11-21T13:51:20;7.50;99.90
30308;DHT22;17114;52.314;8.910;2023-11-21T13:53:51;7.60;99.90
30308;DHT22;17114;52.314;8.910;2023-11-21T13:56:19;7.70;99.90
30308;DHT22;17114;52.314;8.910;2023-11-21T13:58:51;7.50;99.90
30308;DHT22;17114;52.314;8.910;2023-11-21T14:01:20;7.40;99.90
30308;DHT22;17114;52.314;8.910;2023-11-21T14:04:01;7.50;99.90
30308;DHT22;17114;52.314;8.910;2023-11-21T14:06:45;7.40;99.90
30308;DHT22;17114;52.314;8.910;2023-11-21T14:09:17;7.40;99.90
30308;DHT22;17114;52.314;8.910;2023-11-21T14:11:53;7.40;99.90
30308;DHT22;17114;52.314;8.910;2023-11-21T14:14:23;7.40;99.90
30308;DHT22;17114;52.314;8.910;2023-11-21T14:16:52;7.40;99.90
30308;DHT22;17114;52.314;8.910;2023-11-21T14:19:19;7.40;99.90
30308;DHT22;17114;52.314;8.910;2023-11-21T14:21:47;7.30;99.90
30308;DHT22;17114;52.314;8.910;2023-11-21T14:24:15;7.30;99.90
30308;DHT22;17114;52.314;8.910;2023-11-21T14:26:46;7.20;99.90
30308;DHT22;17114;52.314;8.910;2023-11-21T14:29:14;7.20;99.90
30308;DHT22;17114;52.314;8.910;2023-11-21T14:31:44;7.20;99.90
30308;DHT22;17114;52.314;8.910;2023-11-21T14:34:11;7.20;99.90
30308;DHT22;17114;52.314;8.910;2023-11-21T14:36:39;7.20;99.90
30308;DHT22;17114;52.314;8.910;2023-11-21T14:39:10;7.30;99.90
30308;DHT22;17114;52.314;8.910;2023-11-21T14:41:50;7.20;99.90
30308;DHT22;17114;52.314;8.910;2023-11-21T14:44:17;7.20;99.90
30308;DHT22;17114;52.314;8.910;2023-11-21T14:46:44;7.10;99.90
30308;DHT22;17114;52.314;8.910;2023-11-21T14:49:13;7.30;99.90
30308;DHT22;17114;52.314;8.910;2023-11-21T14:51:54;7.10;99.90
30308;DHT22;17114;52.314;8.910;2023-11-21T14:54:31;7.10;99.90
30308;DHT22;17114;52.314;8.910;2023-11-21T14:57:09;7.10;99.90
30308;DHT22;17114;52.314;8.910;2023-11-21T14:59:43;7.00;99.90
30308;DHT22;17114;52.314;8.910;2023-11-21T15:02:13;7.00;99.90
30308;DHT22;17114;52.314;8.910;2023-11-21T15:04:47;6.90;99.90
30308;DHT22;17114;52.314;8.910;2023-11-21T15:07:15;7.10;99.90
30308;DHT22;17114;52.314;8.910;2023-11-21T15:09:42;7.00;99.90
30308;DHT22;17114;52.314;8.910;2023-11-21T15:12:10;7.00;99.90
30308;DHT22;17114;52.314;8.910;2023-11-21T15:14:45;7.10;99.90
30308;DHT22;17114;52.314;8.910;2023-11-21T15:17:15;7.00;99.90
30308;DHT22;17114;52.314;8.910;2023-11-21T15:19:49;7.00;99.90
30308;DHT22;17114;52.314;8.910;2023-11-21T15:22:17;6.90;99.90
30308;DHT22;17114;52.314;8.910;2023-11-21T15:24:44;6.90;99.90
30308;DHT22;17114;52.314;8.910;2023-11-21T15:27:13;6.90;99.90
30308;DHT22;17114;52.314;8.910;2023-11-21T15:29:42;6.80;99.90
30308;DHT22;17114;52.314;8.910;2023-11-21T15:32:09;6.80;99.90
30308;DHT22;17114;52.314;8.910;2023-11-21T15:34:37;6.90;99.90
30308;DHT22;17114;52.314;8.910;2023-11-21T15:37:06;6.90;99.90
30308;DHT22;17114;52.314;8.910;2023-11-21T15:39:36;6.90;99.90
30308;DHT22;17114;52.314;8.910;2023-11-21T15:42:03;6.70;99.90
30308;DHT22;17114;52.314;8.910;2023-11-21T15:44:31;6.70;99.90
30308;DHT22;17114;52.314;8.910;2023-11-21T15:47:00;6.70;99.90
30308;DHT22;17114;52.314;8.910;2023-11-21T15:49:26;6.60;99.90
30308;DHT22;17114;52.314;8.910;2023-11-21T15:51:56;6.60;99.90
30308;DHT22;17114;52.314;8.910;2023-11-21T15:54:26;6.60;99.90
30308;DHT22;17114;52.314;8.910;2023-11-21T15:56:54;6.70;99.90
30308;DHT22;17114;52.314;8.910;2023-11-21T15:59:26;6.60;99.90
30308;DHT22;17114;52.314;8.910;2023-11-21T16:01:59;6.60;99.90
30308;DHT22;17114;52.314;8.910;2023-11-21T16:04:26;6.60;99.90